createdAt,value
2023-03-26T00:00:31.061Z,64.29
2023-03-26T00:03:39.329Z,64.35
2023-03-26T00:06:48.857Z,64.53
2023-03-26T00:09:58.113Z,63.37
2023-03-26T00:13:07.627Z,64.08
2023-03-26T00:16:20.361Z,63.85
2023-03-26T00:19:30.193Z,63.42
2023-03-26T00:22:38.327Z,63.69
2023-03-26T00:25:50.884Z,64.02
2023-03-26T00:29:00.256Z,63.32
2023-03-26T00:32:10.181Z,64.09
2023-03-26T00:35:18.714Z,64.23
2023-03-26T00:38:30.938Z,64.68
2023-03-26T00:41:43.271Z,64.94
2023-03-26T00:44:54.968Z,64.59
2023-03-26T00:48:04.956Z,65.17
2023-03-26T00:51:16.218Z,64.94
2023-03-26T00:54:24.592Z,64.80
2023-03-26T00:57:36.282Z,65.16
2023-03-26T01:00:50.875Z,65.00
2023-03-26T01:04:28.627Z,65.92
2023-03-26T01:07:38.167Z,66.02
2023-03-26T01:10:50.807Z,65.86
2023-03-26T01:14:08.395Z,66.25
2023-03-26T01:17:17.112Z,66.90
2023-03-26T01:20:30.404Z,67.48
2023-03-26T01:23:49.148Z,67.34
2023-03-26T01:27:17.729Z,66.70
2023-03-26T01:30:37.120Z,66.86
2023-03-26T01:33:57.847Z,66.02
2023-03-26T01:37:22.556Z,66.64
2023-03-26T01:40:42.847Z,67.00
2023-03-26T01:44:01.640Z,67.03
2023-03-26T01:47:13.650Z,67.06
2023-03-26T01:50:22.603Z,66.76
2023-03-26T01:53:33.477Z,67.64
2023-03-26T01:57:02.240Z,68.15
2023-03-26T02:00:27.478Z,68.14
2023-03-26T02:03:46.128Z,67.29
2023-03-26T02:07:05.726Z,68.17
2023-03-26T02:10:22.092Z,68.08
2023-03-26T02:13:31.486Z,68.08
2023-03-26T02:16:47.111Z,68.29
2023-03-26T02:19:55.561Z,68.18
2023-03-26T02:23:04.324Z,68.14
2023-03-26T02:26:15.773Z,67.87
2023-03-26T02:29:50.352Z,68.75
2023-03-26T02:33:03.790Z,67.67
2023-03-26T02:36:24.246Z,67.00
2023-03-26T02:39:33.713Z,67.53
2023-03-26T02:42:49.040Z,68.22
2023-03-26T02:45:58.318Z,68.03
2023-03-26T02:49:27.228Z,68.02
2023-03-26T02:52:36.072Z,67.83
2023-03-26T02:55:44.434Z,67.82
2023-03-26T02:58:52.664Z,68.30
2023-03-26T03:02:00.929Z,68.47
2023-03-26T03:05:11.685Z,68.12
2023-03-26T03:08:20.904Z,69.01
2023-03-26T03:11:53.545Z,68.77
2023-03-26T03:15:01.879Z,68.43
2023-03-26T03:18:11.300Z,67.76
2023-03-26T03:21:21.112Z,68.62
2023-03-26T03:24:29.345Z,69.51
2023-03-26T03:27:39.286Z,69.57
2023-03-26T03:30:53.507Z,70.35
2023-03-26T03:34:09.172Z,69.93
2023-03-26T03:37:21.970Z,69.69
2023-03-26T03:40:34.024Z,69.66
2023-03-26T03:43:42.676Z,69.91
2023-03-26T03:46:58.049Z,69.92
2023-03-26T03:50:08.356Z,69.67
2023-03-26T03:53:20.032Z,69.73
2023-03-26T03:56:31.588Z,69.50
2023-03-26T03:59:58.112Z,69.73
2023-03-26T04:03:10.023Z,69.44
2023-03-26T04:06:19.453Z,70.06
2023-03-26T04:09:34.233Z,69.58
2023-03-26T04:12:49.881Z,69.78
2023-03-26T04:16:00.072Z,70.21
2023-03-26T04:19:08.723Z,69.48
2023-03-26T04:22:18.695Z,69.60
2023-03-26T04:25:37.756Z,70.01
2023-03-26T04:28:57.834Z,70.00
2023-03-26T04:32:19.488Z,69.49
2023-03-26T04:35:30.342Z,68.84
2023-03-26T04:38:44.648Z,68.61
2023-03-26T04:41:56.455Z,69.07
2023-03-26T04:45:06.625Z,69.50
2023-03-26T04:48:15.420Z,68.74
2023-03-26T04:51:30.221Z,68.82
2023-03-26T04:54:40.457Z,68.80
2023-03-26T04:58:03.366Z,69.05
2023-03-26T05:01:32.268Z,69.20
2023-03-26T05:04:40.958Z,68.99
2023-03-26T05:07:50.023Z,68.81
2023-03-26T05:11:00.669Z,69.42
2023-03-26T05:14:16.378Z,69.25
2023-03-26T05:17:27.080Z,69.60
2023-03-26T05:20:35.975Z,69.94
2023-03-26T05:23:46.772Z,69.56
2023-03-26T05:27:00.365Z,69.05
2023-03-26T05:30:14.449Z,69.47
2023-03-26T05:33:25.780Z,69.95
2023-03-26T05:36:43.975Z,69.44
2023-03-26T05:40:22.511Z,69.54
2023-03-26T05:43:37.712Z,70.48
2023-03-26T05:47:00.830Z,70.03
2023-03-26T05:50:12.185Z,70.46
2023-03-26T05:53:26.402Z,69.93
2023-03-26T05:56:54.033Z,70.35
2023-03-26T06:00:24.209Z,70.49
2023-03-26T06:03:40.526Z,70.24
2023-03-26T06:06:57.010Z,70.06
2023-03-26T06:10:08.499Z,70.78
2023-03-26T06:13:17.602Z,70.95
2023-03-26T06:16:28.368Z,71.39
2023-03-26T06:19:58.600Z,71.68
2023-03-26T06:23:16.573Z,71.42
2023-03-26T06:26:57.357Z,71.47
2023-03-26T06:30:35.144Z,72.90
2023-03-26T06:33:54.465Z,72.69
2023-03-26T06:37:04.397Z,72.58
2023-03-26T06:40:14.842Z,71.93
2023-03-26T06:43:39.420Z,71.89
2023-03-26T06:47:02.520Z,70.49
2023-03-26T06:50:39.528Z,71.08
2023-03-26T06:54:14.876Z,72.77
2023-03-26T06:57:35.314Z,73.51
2023-03-26T07:01:03.489Z,74.75
2023-03-26T07:04:32.134Z,76.03
2023-03-26T07:07:59.040Z,75.57
2023-03-26T07:11:29.331Z,76.43
2023-03-26T07:14:57.915Z,76.25
2023-03-26T07:18:26.759Z,76.45
2023-03-26T07:21:37.066Z,76.20
2023-03-26T07:24:56.208Z,75.40
2023-03-26T07:28:28.808Z,74.75
2023-03-26T07:32:04.824Z,73.60
2023-03-26T07:35:47.810Z,74.20
2023-03-26T07:39:28.651Z,73.21
2023-03-26T07:43:09.392Z,72.12
2023-03-26T07:46:39.301Z,72.80
2023-03-26T07:50:06.000Z,73.19
2023-03-26T07:53:43.059Z,73.36
2023-03-26T07:57:34.936Z,74.10
2023-03-26T08:01:11.173Z,73.81
2023-03-26T08:04:56.305Z,74.82
2023-03-26T08:08:37.237Z,74.17
2023-03-26T08:12:27.215Z,72.63
2023-03-26T08:15:45.399Z,73.39
2023-03-26T08:19:06.162Z,73.00
2023-03-26T08:22:27.321Z,71.41
2023-03-26T08:25:52.683Z,71.01
2023-03-26T08:29:15.841Z,69.91
2023-03-26T08:32:24.864Z,68.62
2023-03-26T08:35:35.265Z,69.50
2023-03-26T08:38:46.919Z,67.02
2023-03-26T08:42:49.434Z,66.67
2023-03-26T08:46:34.292Z,66.03
2023-03-26T08:50:21.628Z,65.67
2023-03-26T08:54:15.062Z,65.03
2023-03-26T08:58:21.408Z,63.25
2023-03-26T09:02:12.330Z,63.98
2023-03-26T09:06:08.487Z,63.65
2023-03-26T09:10:27.541Z,62.94
2023-03-26T09:14:20.369Z,62.34
2023-03-26T09:18:27.926Z,62.28
2023-03-26T09:22:27.751Z,63.55
2023-03-26T09:26:23.775Z,65.07
2023-03-26T09:30:31.974Z,65.92
2023-03-26T09:34:03.797Z,66.42
2023-03-26T09:37:27.828Z,65.20
2023-03-26T09:40:44.083Z,65.79
2023-03-26T09:44:36.181Z,66.47
2023-03-26T09:48:21.543Z,65.95
2023-03-26T09:51:54.733Z,66.45
2023-03-26T09:55:40.440Z,67.97
2023-03-26T09:59:23.164Z,67.99
2023-03-26T10:03:00.150Z,69.54
2023-03-26T10:06:47.232Z,69.70
2023-03-26T10:10:06.486Z,72.13
2023-03-26T10:13:31.864Z,70.25
2023-03-26T10:16:59.500Z,70.77
2023-03-26T10:20:32.410Z,70.58
2023-03-26T10:24:09.860Z,70.30
2023-03-26T10:27:41.183Z,70.92
2023-03-26T10:31:28.343Z,72.15
2023-03-26T10:35:11.185Z,72.61
2023-03-26T10:38:38.881Z,72.40
2023-03-26T10:42:02.006Z,74.68
2023-03-26T10:45:43.744Z,76.39
2023-03-26T10:49:53.598Z,78.14
2023-03-26T10:53:11.385Z,78.86
2023-03-26T10:56:36.038Z,79.56
2023-03-26T10:59:44.556Z,78.64
2023-03-26T11:03:41.876Z,78.18
2023-03-26T11:07:08.670Z,78.21
2023-03-26T11:10:27.162Z,75.61
2023-03-26T11:13:52.030Z,73.99
2023-03-26T11:17:40.198Z,75.14
2023-03-26T11:20:57.142Z,74.41
2023-03-26T11:25:09.952Z,74.49
2023-03-26T11:28:42.194Z,73.45
2023-03-26T11:32:16.125Z,76.32
2023-03-26T11:35:39.482Z,75.49
2023-03-26T11:38:52.086Z,75.75
2023-03-26T11:42:14.110Z,74.72
2023-03-26T11:45:30.795Z,74.92
2023-03-26T11:48:44.893Z,75.09
2023-03-26T11:51:54.372Z,75.04
2023-03-26T11:55:03.354Z,76.82
2023-03-26T11:58:31.226Z,75.57
2023-03-26T12:01:50.841Z,76.22
2023-03-26T12:05:20.847Z,76.13
2023-03-26T12:08:35.766Z,75.06
2023-03-26T12:11:54.608Z,76.22
2023-03-26T12:15:05.093Z,76.95
2023-03-26T12:18:27.211Z,76.24
2023-03-26T12:21:48.510Z,75.26
2023-03-26T12:25:15.431Z,71.98
2023-03-26T12:28:23.656Z,69.64
2023-03-26T12:31:53.238Z,69.20
2023-03-26T12:35:07.721Z,68.01
2023-03-26T12:38:24.283Z,69.61
2023-03-26T12:42:25.712Z,71.63
2023-03-26T12:45:15.744Z,70.68
2023-03-26T12:48:27.161Z,69.86
2023-03-26T12:51:49.118Z,70.69
2023-03-26T12:55:14.487Z,70.31
2023-03-26T12:58:47.950Z,72.18
2023-03-26T13:02:21.189Z,70.45
2023-03-26T13:05:46.607Z,71.45
2023-03-26T13:09:32.905Z,69.80
2023-03-26T13:12:52.693Z,70.76
2023-03-26T13:16:10.619Z,70.39
2023-03-26T13:19:28.952Z,70.16
2023-03-26T13:22:53.169Z,69.37
2023-03-26T13:26:17.168Z,68.79
2023-03-26T13:29:38.172Z,67.99
2023-03-26T13:33:10.609Z,69.73
2023-03-26T13:36:27.623Z,68.58
2023-03-26T13:39:58.094Z,68.58
2023-03-26T13:43:35.212Z,68.13
2023-03-26T13:46:49.742Z,67.33
2023-03-26T13:50:06.509Z,67.23
2023-03-26T13:53:20.628Z,68.34
2023-03-26T13:56:42.089Z,68.48
2023-03-26T13:59:57.540Z,67.96
2023-03-26T14:03:19.734Z,66.85
2023-03-26T14:06:46.736Z,67.25
2023-03-26T14:10:03.232Z,66.16
2023-03-26T14:13:23.282Z,67.19
2023-03-26T14:16:39.387Z,66.34
2023-03-26T14:20:33.149Z,67.49
2023-03-26T14:24:13.605Z,66.45
2023-03-26T14:27:49.641Z,66.55
2023-03-26T14:31:23.698Z,67.36
2023-03-26T14:35:00.158Z,66.23
2023-03-26T14:38:34.074Z,66.01
2023-03-26T14:41:51.677Z,66.27
2023-03-26T14:45:36.846Z,66.53
2023-03-26T14:49:21.899Z,65.09
2023-03-26T14:52:47.518Z,65.72
2023-03-26T14:56:54.481Z,65.95
2023-03-26T15:01:10.896Z,66.25
2023-03-26T15:04:59.159Z,65.76
2023-03-26T15:09:09.146Z,66.23
2023-03-26T15:12:35.954Z,66.53
2023-03-26T15:16:14.978Z,65.31
2023-03-26T15:20:21.183Z,65.82
2023-03-26T15:24:14.337Z,64.59
2023-03-26T15:27:39.618Z,64.96
2023-03-26T15:31:43.309Z,65.76
2023-03-26T15:35:33.295Z,64.72
2023-03-26T15:39:32.215Z,64.88
2023-03-26T15:42:59.249Z,65.28
2023-03-26T15:46:33.984Z,65.93
2023-03-26T15:49:50.550Z,66.19
2023-03-26T15:53:19.464Z,65.87
2023-03-26T15:56:49.317Z,65.62
2023-03-26T16:00:36.082Z,66.67
2023-03-26T16:03:57.110Z,65.32
2023-03-26T16:07:26.317Z,62.98
2023-03-26T16:10:49.871Z,65.11
2023-03-26T16:14:18.267Z,64.72
2023-03-26T16:17:27.758Z,66.00
2023-03-26T16:20:50.767Z,66.42
2023-03-26T16:24:23.536Z,70.19
2023-03-26T16:27:36.904Z,67.20
2023-03-26T16:30:48.409Z,66.82
2023-03-26T16:34:21.474Z,68.50
2023-03-26T16:37:43.763Z,66.50
2023-03-26T16:41:17.141Z,67.77
2023-03-26T16:44:41.324Z,67.37
2023-03-26T16:48:03.292Z,66.46
2023-03-26T16:51:22.969Z,66.76
2023-03-26T16:54:47.030Z,67.63
2023-03-26T16:58:08.972Z,69.15
2023-03-26T17:01:34.750Z,69.36
2023-03-26T17:04:52.646Z,70.18
2023-03-26T17:08:11.997Z,70.40
2023-03-26T17:11:38.651Z,70.48
2023-03-26T17:15:08.425Z,70.25
2023-03-26T17:18:33.534Z,70.74
2023-03-26T17:21:56.794Z,70.99
2023-03-26T17:25:22.439Z,69.55
2023-03-26T17:29:15.401Z,68.51
2023-03-26T17:32:24.522Z,68.31
2023-03-26T17:35:45.587Z,70.95
2023-03-26T17:40:12.341Z,71.36
2023-03-26T17:43:45.022Z,69.96
2023-03-26T17:46:57.766Z,71.27
2023-03-26T17:50:15.731Z,71.26
2023-03-26T17:53:32.255Z,72.15
2023-03-26T17:56:42.951Z,73.04
2023-03-26T17:59:58.431Z,73.23
2023-03-26T18:03:20.266Z,73.40
2023-03-26T18:06:51.791Z,73.61
2023-03-26T18:10:33.128Z,73.84
2023-03-26T18:14:34.848Z,74.18
2023-03-26T18:17:48.175Z,74.76
2023-03-26T18:21:03.649Z,74.82
2023-03-26T18:24:21.784Z,75.17
2023-03-26T18:27:40.363Z,74.28
2023-03-26T18:30:51.059Z,74.67
2023-03-26T18:34:14.100Z,76.50
2023-03-26T18:37:27.309Z,76.85
2023-03-26T18:40:43.050Z,76.35
2023-03-26T18:43:52.906Z,77.62
2023-03-26T18:47:01.171Z,76.73
2023-03-26T18:50:19.949Z,77.21
2023-03-26T18:53:31.758Z,77.89
2023-03-26T18:56:43.161Z,78.51
2023-03-26T18:59:55.891Z,76.83
2023-03-26T19:03:08.168Z,76.81
2023-03-26T19:06:17.741Z,77.21
2023-03-26T19:09:31.996Z,77.61
2023-03-26T19:12:41.366Z,76.71
2023-03-26T19:15:54.986Z,76.77
2023-03-26T19:19:08.680Z,78.74
2023-03-26T19:22:19.123Z,78.28
2023-03-26T19:25:35.395Z,77.97
2023-03-26T19:28:50.737Z,77.64
2023-03-26T19:32:07.395Z,78.20
2023-03-26T19:35:24.140Z,78.04
2023-03-26T19:38:44.182Z,77.83
2023-03-26T19:41:54.408Z,78.19
2023-03-26T19:45:07.061Z,77.56
2023-03-26T19:48:45.841Z,77.23
2023-03-26T19:51:53.268Z,76.68
2023-03-26T19:55:05.179Z,77.06
2023-03-26T19:58:13.772Z,76.57
2023-03-26T20:01:26.759Z,76.50
2023-03-26T20:04:36.803Z,75.65
2023-03-26T20:07:45.297Z,75.69
2023-03-26T20:10:55.758Z,75.29
2023-03-26T20:14:13.526Z,75.49
2023-03-26T20:17:22.386Z,75.18
2023-03-26T20:20:34.266Z,75.45
2023-03-26T20:23:43.117Z,74.25
2023-03-26T20:26:51.470Z,73.96
2023-03-26T20:30:00.297Z,74.07
2023-03-26T20:36:32.711Z,73.63
2023-03-26T20:39:43.086Z,72.94
2023-03-26T20:42:51.647Z,73.69
2023-03-26T20:46:01.679Z,72.78
2023-03-26T20:49:11.058Z,72.48
2023-03-26T20:52:22.812Z,72.88
2023-03-26T20:55:31.161Z,71.91
2023-03-26T20:58:40.175Z,72.84
2023-03-26T21:01:49.758Z,72.38
2023-03-26T21:04:58.617Z,72.92
2023-03-26T21:08:18.557Z,72.56
2023-03-26T21:11:44.470Z,71.98
2023-03-26T21:14:55.732Z,71.89
2023-03-26T21:18:05.480Z,71.64
2023-03-26T21:21:35.689Z,71.37
2023-03-26T21:25:05.942Z,72.83
2023-03-26T21:28:39.820Z,72.82
2023-03-26T21:31:54.000Z,72.27
2023-03-26T21:35:05.262Z,72.44
2023-03-26T21:38:15.555Z,72.13
2023-03-26T21:41:41.184Z,72.40
2023-03-26T21:44:50.810Z,72.83
2023-03-26T21:47:59.793Z,72.60
2023-03-26T21:51:14.689Z,72.16
2023-03-26T21:54:27.368Z,72.08
2023-03-26T21:57:57.474Z,71.25
2023-03-26T22:01:25.083Z,72.15
2023-03-26T22:04:43.082Z,72.29
2023-03-26T22:07:58.479Z,72.81
2023-03-26T22:11:08.264Z,72.66
2023-03-26T22:14:17.867Z,73.77
2023-03-26T22:17:26.148Z,73.51
2023-03-26T22:20:34.927Z,74.04
2023-03-26T22:23:43.187Z,73.31
2023-03-26T22:26:51.631Z,72.81
2023-03-26T22:30:01.161Z,72.72
2023-03-26T22:33:10.882Z,73.20
2023-03-26T22:36:22.770Z,72.74
2023-03-26T22:39:32.324Z,73.49
2023-03-26T22:42:41.048Z,73.55
2023-03-26T22:45:53.739Z,74.00
2023-03-26T22:49:02.137Z,74.33
2023-03-26T22:52:11.056Z,74.02
2023-03-26T22:55:29.035Z,73.77
2023-03-26T22:58:38.962Z,73.62
2023-03-26T23:01:48.595Z,73.34
2023-03-26T23:04:57.042Z,73.26
2023-03-26T23:08:07.720Z,73.88
2023-03-26T23:11:18.727Z,73.55
2023-03-26T23:14:28.567Z,73.11
2023-03-26T23:17:39.343Z,73.56
2023-03-26T23:20:52.731Z,73.36
2023-03-26T23:24:01.428Z,73.22
2023-03-26T23:27:10.801Z,73.19
2023-03-26T23:30:19.610Z,73.90
2023-03-26T23:33:33.296Z,73.50
2023-03-26T23:36:42.277Z,73.45
2023-03-26T23:39:50.885Z,73.40
2023-03-26T23:42:59.786Z,73.92
2023-03-26T23:46:10.357Z,74.01
2023-03-26T23:49:20.829Z,73.96
2023-03-26T23:52:30.152Z,73.89
2023-03-26T23:55:38.336Z,74.58
2023-03-26T23:58:46.523Z,74.00
